Terminal Aerodrome Forecast
Issued by NWS Topeka, KS

Home | Current Version | Previous Version | Graphics & Text | Print | Product List | Glossary Off
Versions: 1 2 3 4 5 6 7 8 9 10 11 12 13 14 15 16 17 18 19 20

000
FTUS43 KTOP 022320
TAFTOP
TAF
KTOP 022320Z 0300/0324 17009KT P6SM SCT090
     FM031700 18013G19KT P6SM FEW100=

USA.gov is the U.S. government's official web portal to all federal, state and local government web resources and services.